Time;durP1;ratioP1;P1;durP2;ratioP2;P2;SDS_P1;SDS_P2;PMS_P1;PMS_P2;Temp;Humidity;BMP_temperature;BMP_pressure;BME280_temperature;BME280_humidity;BME280_pressure;Samples;Min_cycle;Max_cycle;Signal;HPM_P1;HPM_P2
2022/09/10 00:01:34;;;;;;;1.83;0.90;;;8.80;99.90;;;;;;4947062;29;20816;-89
2022/09/10 00:04:07;;;;;;;2.13;0.90;;;8.80;99.90;;;;;;4919956;29;20903;-88
2022/09/10 00:06:37;;;;;;;3.13;1.05;;;8.80;99.90;;;;;;4926960;29;20408;-88
2022/09/10 00:09:06;;;;;;;2.80;1.02;;;8.80;99.90;;;;;;4930009;29;20504;-89
2022/09/10 00:11:34;;;;;;;3.70;1.00;;;8.80;99.90;;;;;;4924698;29;20414;-88
2022/09/10 00:14:03;;;;;;;2.33;0.80;;;8.80;99.90;;;;;;4923564;29;20414;-89
2022/09/10 00:16:32;;;;;;;2.40;0.98;;;8.70;99.90;;;;;;4924378;29;20415;-89
2022/09/10 00:19:00;;;;;;;1.60;0.90;;;8.70;99.90;;;;;;4931275;29;20416;-88
2022/09/10 00:21:28;;;;;;;2.30;0.93;;;8.70;99.90;;;;;;4917324;29;20449;-88
2022/09/10 00:23:56;;;;;;;1.83;1.13;;;8.60;99.90;;;;;;4923481;29;20506;-89
2022/09/10 00:26:30;;;;;;;1.98;1.05;;;8.60;99.90;;;;;;4931430;29;20508;-89
2022/09/10 00:29:01;;;;;;;4.20;1.20;;;8.60;99.90;;;;;;4917451;29;20423;-89
2022/09/10 00:31:30;;;;;;;1.50;0.82;;;8.50;99.90;;;;;;4926514;29;20936;-89
2022/09/10 00:33:59;;;;;;;3.20;1.00;;;8.50;99.90;;;;;;4928687;29;20829;-88
2022/09/10 00:36:31;;;;;;;2.20;0.80;;;8.60;99.90;;;;;;4938210;29;20449;-89
2022/09/10 00:39:02;;;;;;;2.35;1.00;;;8.50;99.90;;;;;;4922449;29;20420;-87
2022/09/10 00:41:32;;;;;;;1.42;0.80;;;8.50;99.90;;;;;;4917871;29;20954;-89
2022/09/10 00:44:02;;;;;;;2.03;0.90;;;8.60;99.90;;;;;;4922549;29;20909;-89
2022/09/10 00:46:48;;;;;;;2.40;1.00;;;8.50;99.90;;;;;;4933969;29;20405;-88
2022/09/10 00:49:20;;;;;;;2.60;1.00;;;8.40;99.90;;;;;;4930141;29;20397;-89
2022/09/10 00:51:51;;;;;;;2.25;1.10;;;8.40;99.90;;;;;;4918510;29;20910;-88
2022/09/10 00:54:22;;;;;;;1.50;0.90;;;8.40;99.90;;;;;;4929116;29;20423;-89
2022/09/10 00:56:52;;;;;;;2.55;1.00;;;8.40;99.90;;;;;;4925938;29;20418;-89
2022/09/10 00:59:25;;;;;;;1.90;0.95;;;8.40;99.90;;;;;;4924529;29;20429;-89
2022/09/10 01:01:54;;;;;;;2.88;1.00;;;8.40;99.90;;;;;;4931642;29;20972;-88
2022/09/10 01:04:22;;;;;;;1.85;0.80;;;8.30;99.90;;;;;;4922947;29;20462;-89
2022/09/10 01:06:51;;;;;;;2.58;1.00;;;8.30;99.90;;;;;;4939628;28;20410;-87
2022/09/10 01:09:22;;;;;;;1.92;0.90;;;8.40;99.90;;;;;;4950253;29;20398;-89
2022/09/10 01:12:09;;;;;;;1.95;1.08;;;8.40;99.90;;;;;;4942663;29;20420;-88
2022/09/10 01:15:29;;;;;;;3.25;0.93;;;8.40;99.90;;;;;;4949344;29;20414;-88
2022/09/10 01:17:57;;;;;;;2.88;0.95;;;8.30;99.90;;;;;;4922058;29;20414;-89
2022/09/10 01:21:04;;;;;;;2.28;1.10;;;8.40;99.90;;;;;;4916022;29;20410;-89
2022/09/10 01:23:40;;;;;;;2.65;1.08;;;8.30;99.90;;;;;;4911484;29;20467;-89
2022/09/10 01:26:42;;;;;;;2.30;1.10;;;8.30;99.90;;;;;;4923562;29;20426;-88
2022/09/10 01:29:20;;;;;;;2.40;1.40;;;8.30;99.90;;;;;;4949293;28;20426;-88
2022/09/10 01:31:57;;;;;;;2.65;1.20;;;8.20;99.90;;;;;;4931247;29;20516;-90
2022/09/10 01:34:45;;;;;;;1.88;1.00;;;8.10;99.90;;;;;;4930827;29;20505;-90
2022/09/10 01:37:20;;;;;;;1.58;0.90;;;8.10;99.90;;;;;;4930800;29;20437;-89
2022/09/10 01:39:51;;;;;;;2.10;0.90;;;8.10;99.90;;;;;;4930537;29;20445;-89
2022/09/10 01:42:19;;;;;;;3.35;1.20;;;8.10;99.90;;;;;;4939190;29;20472;-89
2022/09/10 01:44:49;;;;;;;2.75;1.10;;;8.00;99.90;;;;;;4948808;28;20402;-89
2022/09/10 01:47:58;;;;;;;3.03;1.10;;;8.00;99.90;;;;;;4926804;29;20420;-90
2022/09/10 01:50:44;;;;;;;2.35;1.00;;;8.00;99.90;;;;;;4931173;29;20410;-89
2022/09/10 01:53:18;;;;;;;4.38;1.10;;;7.90;99.90;;;;;;4922179;29;20413;-90
2022/09/10 01:55:55;;;;;;;3.20;1.20;;;7.90;99.90;;;;;;4931783;29;20421;-85
2022/09/10 01:58:35;;;;;;;1.75;1.10;;;8.00;99.90;;;;;;4930826;29;20485;-89
2022/09/10 02:01:12;;;;;;;1.80;1.00;;;7.90;99.90;;;;;;4915783;29;20905;-89
2022/09/10 02:03:43;;;;;;;3.70;1.30;;;8.00;99.90;;;;;;4920062;29;20409;-88
2022/09/10 02:06:15;;;;;;;2.47;1.05;;;7.90;99.90;;;;;;4934263;29;20758;-87
2022/09/10 02:08:45;;;;;;;2.00;1.00;;;7.90;99.90;;;;;;4924500;29;20412;-89
2022/09/10 02:11:14;;;;;;;5.10;1.30;;;7.80;99.90;;;;;;4933276;29;20417;-89
2022/09/10 02:13:46;;;;;;;2.80;1.13;;;7.80;99.90;;;;;;4919635;29;20455;-89
2022/09/10 02:16:33;;;;;;;2.75;1.15;;;7.70;99.90;;;;;;4920702;29;20908;-90
2022/09/10 02:19:02;;;;;;;1.90;1.10;;;7.80;99.90;;;;;;4924266;29;20422;-90
2022/09/10 02:21:31;;;;;;;1.85;0.90;;;7.80;99.90;;;;;;4931951;29;20410;-90
2022/09/10 02:24:05;;;;;;;2.72;1.38;;;7.70;99.90;;;;;;4933699;29;20396;-89
2022/09/10 02:26:37;;;;;;;3.63;1.17;;;7.70;99.90;;;;;;4918832;29;20427;-89
2022/09/10 02:29:07;;;;;;;3.83;1.17;;;7.50;99.90;;;;;;4932236;29;20865;-88
2022/09/10 02:31:35;;;;;;;4.10;1.20;;;7.50;99.90;;;;;;4929532;29;20426;-89
2022/09/10 02:34:03;;;;;;;2.15;1.15;;;7.60;99.90;;;;;;4929670;29;20414;-88
2022/09/10 02:36:31;;;;;;;3.10;1.30;;;7.60;99.90;;;;;;4929910;29;20410;-88
2022/09/10 02:39:02;;;;;;;2.35;1.13;;;7.50;99.90;;;;;;4932818;29;20487;-88
2022/09/10 02:41:33;;;;;;;2.47;1.13;;;7.50;99.90;;;;;;4933057;29;20509;-89
2022/09/10 02:44:03;;;;;;;3.80;1.20;;;7.40;99.90;;;;;;4932496;29;20770;-90
2022/09/10 02:46:31;;;;;;;3.15;1.10;;;7.50;99.90;;;;;;4932814;29;20410;-89
2022/09/10 02:48:59;;;;;;;3.05;1.10;;;7.50;99.90;;;;;;4926901;29;20513;-88
2022/09/10 02:51:29;;;;;;;2.30;1.10;;;7.50;99.90;;;;;;4931553;29;20460;-89
2022/09/10 02:53:58;;;;;;;3.10;1.10;;;7.50;99.90;;;;;;4928418;29;20986;-90
2022/09/10 02:56:25;;;;;;;2.13;1.15;;;7.50;99.90;;;;;;4936650;28;20417;-89
2022/09/10 02:58:53;;;;;;;1.90;1.10;;;7.50;99.90;;;;;;4933258;29;20409;-89
2022/09/10 03:01:23;;;;;;;2.53;1.17;;;7.40;99.90;;;;;;4939605;29;20777;-88
2022/09/10 03:03:59;;;;;;;1.80;1.15;;;7.40;99.90;;;;;;4952378;29;20468;-88
2022/09/10 03:06:29;;;;;;;2.80;1.07;;;7.50;99.90;;;;;;4934386;29;20901;-89
2022/09/10 03:08:57;;;;;;;2.03;1.20;;;7.40;99.90;;;;;;4936782;29;20465;-89
2022/09/10 03:11:26;;;;;;;2.05;1.17;;;7.40;99.90;;;;;;4928428;29;20423;-89
2022/09/10 03:13:56;;;;;;;1.48;0.93;;;7.30;99.90;;;;;;4944003;28;20414;-88
2022/09/10 03:16:24;;;;;;;2.60;1.40;;;7.30;99.90;;;;;;4929178;29;20987;-89
2022/09/10 03:18:52;;;;;;;3.45;1.30;;;7.30;99.90;;;;;;4926422;29;20467;-89
2022/09/10 03:21:23;;;;;;;3.03;1.20;;;7.30;99.90;;;;;;4924792;29;20442;-89
2022/09/10 03:23:52;;;;;;;2.20;1.20;;;7.30;99.90;;;;;;4933182;29;20391;-89
2022/09/10 03:26:29;;;;;;;2.13;1.30;;;7.30;99.90;;;;;;4934688;29;20549;-89
2022/09/10 03:28:57;;;;;;;1.70;1.00;;;7.30;99.90;;;;;;4934243;29;20798;-89
2022/09/10 03:31:28;;;;;;;2.33;1.20;;;7.30;99.90;;;;;;4932779;29;20494;-86
2022/09/10 03:33:58;;;;;;;2.80;1.40;;;7.30;99.90;;;;;;4904758;29;20497;-89
2022/09/10 03:36:32;;;;;;;2.28;1.20;;;7.30;99.90;;;;;;4930227;29;20484;-89
2022/09/10 03:39:00;;;;;;;1.93;1.10;;;7.30;99.90;;;;;;4922011;29;20422;-88
2022/09/10 03:41:30;;;;;;;2.65;1.20;;;7.20;99.90;;;;;;4932328;29;20524;-89
2022/09/10 03:43:59;;;;;;;1.98;1.10;;;7.20;99.90;;;;;;4927318;29;20778;-89
2022/09/10 03:46:27;;;;;;;4.55;1.30;;;7.20;99.90;;;;;;4933132;29;20421;-89
2022/09/10 03:49:01;;;;;;;3.42;1.15;;;7.10;99.90;;;;;;4920257;29;20471;-88
2022/09/10 03:51:32;;;;;;;2.10;1.05;;;7.10;99.90;;;;;;4932289;29;20446;-89
2022/09/10 03:54:02;;;;;;;3.53;1.20;;;7.10;99.90;;;;;;4930067;29;20457;-89
2022/09/10 03:56:31;;;;;;;3.17;1.20;;;7.00;99.90;;;;;;4921873;29;20465;-87
2022/09/10 03:58:59;;;;;;;2.67;1.10;;;7.00;99.90;;;;;;4936305;29;20404;-89
2022/09/10 04:01:28;;;;;;;2.60;1.38;;;7.00;99.90;;;;;;4925119;29;20785;-88
2022/09/10 04:03:57;;;;;;;2.85;1.10;;;7.00;99.90;;;;;;4926206;29;20422;-88
2022/09/10 04:06:27;;;;;;;2.78;1.13;;;7.10;99.90;;;;;;4925187;29;20775;-89
2022/09/10 04:08:55;;;;;;;2.60;1.20;;;7.10;99.90;;;;;;4939411;29;20965;-88
2022/09/10 04:11:26;;;;;;;2.70;1.05;;;7.10;99.90;;;;;;4918989;29;20942;-88
2022/09/10 04:13:56;;;;;;;2.07;1.13;;;7.10;99.90;;;;;;4930679;29;20442;-89
2022/09/10 04:16:26;;;;;;;2.28;1.20;;;7.10;99.90;;;;;;4955466;28;20948;-88
2022/09/10 04:18:54;;;;;;;2.70;1.00;;;7.10;99.90;;;;;;4926689;29;20419;-88
2022/09/10 04:21:23;;;;;;;2.85;1.20;;;7.10;99.90;;;;;;4930292;29;20413;-88
2022/09/10 04:23:59;;;;;;;2.75;1.10;;;7.10;99.90;;;;;;4921004;29;20814;-88
2022/09/10 04:26:28;;;;;;;3.65;1.40;;;7.10;99.90;;;;;;4933407;29;20476;-89
2022/09/10 04:28:55;;;;;;;1.92;1.10;;;7.00;99.90;;;;;;4925658;29;20406;-89
2022/09/10 04:31:23;;;;;;;3.20;1.30;;;7.10;99.90;;;;;;4931288;29;20408;-89
2022/09/10 04:33:55;;;;;;;2.60;1.20;;;7.00;99.90;;;;;;4935106;29;20447;-89
2022/09/10 04:36:25;;;;;;;1.98;1.08;;;7.00;99.90;;;;;;4929191;29;20414;-89
2022/09/10 04:38:53;;;;;;;2.17;1.30;;;7.00;99.90;;;;;;4945051;29;20478;-88
2022/09/10 04:41:21;;;;;;;3.22;1.10;;;7.00;99.90;;;;;;4931815;29;20419;-89
2022/09/10 04:43:49;;;;;;;3.10;1.20;;;7.00;99.90;;;;;;4934251;29;20441;-89
2022/09/10 04:46:16;;;;;;;3.53;1.40;;;7.00;99.90;;;;;;4933724;29;20469;-88
2022/09/10 04:48:46;;;;;;;3.53;1.48;;;7.10;99.90;;;;;;4923241;29;20514;-89
2022/09/10 04:51:18;;;;;;;2.43;1.40;;;7.10;99.90;;;;;;4929108;29;20418;-89
2022/09/10 04:53:47;;;;;;;3.45;1.50;;;7.10;99.90;;;;;;4934972;29;20478;-87
2022/09/10 04:56:16;;;;;;;2.37;1.20;;;7.10;99.90;;;;;;4931789;29;20497;-88
2022/09/10 04:58:45;;;;;;;2.83;1.42;;;7.10;99.90;;;;;;4938564;29;20405;-89
2022/09/10 05:01:13;;;;;;;2.45;1.30;;;7.10;99.90;;;;;;4923562;29;20396;-90
2022/09/10 05:03:43;;;;;;;2.78;1.30;;;7.10;99.90;;;;;;4933419;29;20420;-88
2022/09/10 05:06:11;;;;;;;2.42;1.25;;;7.10;99.90;;;;;;4931770;29;20481;-89
2022/09/10 05:08:40;;;;;;;3.20;1.50;;;7.10;99.90;;;;;;4950064;28;20536;-87
2022/09/10 05:11:09;;;;;;;8.55;1.83;;;7.10;99.90;;;;;;4934148;29;20449;-87
2022/09/10 05:13:36;;;;;;;10.10;1.98;;;6.90;99.90;;;;;;4923576;29;20506;-89
2022/09/10 05:16:06;;;;;;;5.13;1.85;;;6.90;99.90;;;;;;4926830;29;20437;-87
2022/09/10 05:18:34;;;;;;;2.73;1.67;;;6.90;99.90;;;;;;4924805;29;20506;-88
2022/09/10 05:21:04;;;;;;;4.65;1.98;;;6.90;99.90;;;;;;4947517;28;20439;-88
2022/09/10 05:23:33;;;;;;;2.88;1.67;;;6.90;99.90;;;;;;4934046;29;20629;-87
2022/09/10 05:26:01;;;;;;;3.42;1.90;;;6.90;99.90;;;;;;4945942;28;20626;-88
2022/09/10 05:28:29;;;;;;;9.88;4.50;;;6.90;99.90;;;;;;4938207;29;20445;-89
2022/09/10 05:30:57;;;;;;;5.35;2.30;;;6.90;99.90;;;;;;4928005;29;20921;-89
2022/09/10 05:33:27;;;;;;;4.28;1.73;;;6.90;99.90;;;;;;4951400;28;20422;-90
2022/09/10 05:35:55;;;;;;;5.30;2.38;;;6.90;99.90;;;;;;4928132;29;20460;-88
2022/09/10 05:38:23;;;;;;;5.10;2.22;;;6.80;99.90;;;;;;4935968;29;20496;-87
2022/09/10 05:40:52;;;;;;;3.95;1.70;;;6.90;99.90;;;;;;4924982;29;20942;-89
2022/09/10 05:43:23;;;;;;;6.53;2.85;;;7.00;99.90;;;;;;4920394;29;20422;-85
2022/09/10 05:45:53;;;;;;;6.60;2.28;;;7.10;99.90;;;;;;4933344;29;20470;-88
2022/09/10 05:48:21;;;;;;;4.68;1.90;;;6.90;99.90;;;;;;4940799;29;20487;-88
2022/09/10 05:50:49;;;;;;;6.35;2.50;;;7.00;99.90;;;;;;4943192;29;20390;-88
2022/09/10 05:53:17;;;;;;;5.60;2.07;;;7.00;99.90;;;;;;4924755;29;20409;-88
2022/09/10 05:55:45;;;;;;;4.88;2.30;;;7.00;99.90;;;;;;4948973;28;20513;-87
2022/09/10 05:58:12;;;;;;;6.05;2.20;;;7.00;99.90;;;;;;4924837;29;20916;-88
2022/09/10 06:00:43;;;;;;;3.90;1.95;;;7.00;99.90;;;;;;4934425;29;20402;-87
2022/09/10 06:03:13;;;;;;;4.28;1.92;;;7.00;99.90;;;;;;4927488;29;20536;-86
2022/09/10 06:05:50;;;;;;;3.88;1.80;;;7.00;99.90;;;;;;4932971;29;20420;-89
2022/09/10 06:08:26;;;;;;;3.83;2.05;;;7.10;99.90;;;;;;4923434;29;20921;-86
2022/09/10 06:11:04;;;;;;;3.23;1.83;;;7.10;99.90;;;;;;4934209;29;20468;-88
2022/09/10 06:13:44;;;;;;;4.38;2.03;;;7.20;99.90;;;;;;4927605;29;20410;-88
2022/09/10 06:16:13;;;;;;;4.85;2.10;;;7.20;99.90;;;;;;4932967;29;20498;-88
2022/09/10 06:18:44;;;;;;;4.75;1.95;;;7.30;99.90;;;;;;4923301;29;20439;-88
2022/09/10 06:21:17;;;;;;;4.50;1.90;;;7.30;99.90;;;;;;4927723;29;20409;-88
2022/09/10 06:23:52;;;;;;;5.15;2.20;;;7.30;99.90;;;;;;4925959;29;20968;-88
2022/09/10 06:26:23;;;;;;;4.47;2.47;;;7.30;99.90;;;;;;4926280;29;20480;-88
2022/09/10 06:28:55;;;;;;;11.30;3.90;;;7.40;99.90;;;;;;4943792;28;20779;-88
2022/09/10 06:31:23;;;;;;;4.43;2.28;;;7.50;99.90;;;;;;4950067;28;20422;-88
2022/09/10 06:33:52;;;;;;;5.40;2.28;;;7.50;99.90;;;;;;4928495;29;20455;-88
2022/09/10 06:36:24;;;;;;;4.47;2.15;;;7.50;99.90;;;;;;4942363;29;20549;-88
2022/09/10 06:38:52;;;;;;;5.60;2.45;;;7.50;99.90;;;;;;4917837;29;20404;-88
2022/09/10 06:41:21;;;;;;;5.17;2.17;;;7.60;99.90;;;;;;4930834;29;20420;-86
2022/09/10 06:43:53;;;;;;;11.05;6.57;;;7.60;99.90;;;;;;4948583;28;20422;-87
2022/09/10 06:46:33;;;;;;;7.35;2.38;;;7.70;99.90;;;;;;4931786;29;20924;-89
2022/09/10 06:49:23;;;;;;;4.30;2.00;;;7.70;99.90;;;;;;4950291;28;20422;-90
2022/09/10 06:51:52;;;;;;;3.95;1.85;;;7.70;99.90;;;;;;4942767;29;20410;-88
2022/09/10 06:54:26;;;;;;;4.82;2.20;;;7.70;99.90;;;;;;4936525;29;20398;-89
2022/09/10 06:57:00;;;;;;;15.20;8.02;;;7.80;99.90;;;;;;4942789;29;20419;-87
2022/09/10 06:59:33;;;;;;;5.00;2.00;;;7.90;99.90;;;;;;4932879;29;20780;-88
2022/09/10 07:02:01;;;;;;;3.90;1.60;;;7.90;99.90;;;;;;4950319;28;20917;-87
2022/09/10 07:04:30;;;;;;;4.65;1.92;;;8.00;99.90;;;;;;4918319;29;20419;-88
2022/09/10 07:06:59;;;;;;;6.68;2.08;;;8.10;99.90;;;;;;4933986;29;20773;-87
2022/09/10 07:09:31;;;;;;;4.50;2.22;;;8.20;99.90;;;;;;4932890;29;20431;-87
2022/09/10 07:12:03;;;;;;;3.90;2.05;;;8.30;99.90;;;;;;4930638;29;20418;-88
2022/09/10 07:14:34;;;;;;;4.15;2.00;;;8.30;99.90;;;;;;4924040;29;20415;-87
2022/09/10 07:17:05;;;;;;;4.43;1.90;;;8.40;99.90;;;;;;4947806;28;20425;-89
2022/09/10 07:19:36;;;;;;;3.22;1.80;;;8.40;99.90;;;;;;4930938;29;20514;-88
2022/09/10 07:22:11;;;;;;;5.45;2.00;;;8.50;99.90;;;;;;4931180;29;20422;-89
2022/09/10 07:24:39;;;;;;;4.25;1.90;;;8.60;99.90;;;;;;4933710;29;20414;-88
2022/09/10 07:27:10;;;;;;;4.07;1.88;;;8.60;99.90;;;;;;4937384;29;20418;-88
2022/09/10 07:29:41;;;;;;;3.42;1.80;;;8.70;99.90;;;;;;4926085;29;20465;-89
2022/09/10 07:32:15;;;;;;;3.15;1.80;;;8.80;99.90;;;;;;4934531;29;20445;-88
2022/09/10 07:34:45;;;;;;;5.72;2.10;;;8.80;99.90;;;;;;4964091;28;20408;-88
2022/09/10 07:37:16;;;;;;;3.80;2.00;;;8.90;99.90;;;;;;4965831;28;20981;-89
2022/09/10 07:39:45;;;;;;;4.88;2.05;;;9.00;99.90;;;;;;4951989;29;20445;-89
2022/09/10 07:42:15;;;;;;;4.03;1.97;;;9.10;99.90;;;;;;4951489;28;20441;-88
2022/09/10 07:44:44;;;;;;;4.57;1.80;;;9.20;99.90;;;;;;4936794;29;20428;-88
2022/09/10 07:47:12;;;;;;;3.92;2.00;;;9.30;99.90;;;;;;4937862;29;20750;-88
2022/09/10 07:49:40;;;;;;;4.32;2.25;;;9.30;99.90;;;;;;4933395;29;20443;-88
2022/09/10 07:52:07;;;;;;;6.15;1.70;;;9.30;99.90;;;;;;4917668;29;20803;-88
2022/09/10 07:54:43;;;;;;;5.60;1.80;;;9.40;99.90;;;;;;4920711;29;20410;-88
2022/09/10 07:57:11;;;;;;;3.25;1.52;;;9.50;99.90;;;;;;4936768;29;20405;-88
2022/09/10 07:59:39;;;;;;;3.40;1.55;;;9.60;99.90;;;;;;4939562;29;20412;-89
2022/09/10 08:02:13;;;;;;;3.88;1.73;;;9.70;99.90;;;;;;4951928;28;20404;-87
2022/09/10 08:04:45;;;;;;;6.13;1.80;;;9.80;99.90;;;;;;4955420;29;20416;-89
2022/09/10 08:07:16;;;;;;;4.32;1.75;;;9.90;99.90;;;;;;4968804;28;20429;-89
2022/09/10 08:09:44;;;;;;;5.70;2.47;;;10.00;99.90;;;;;;4953700;28;20417;-89
2022/09/10 08:12:16;;;;;;;3.67;1.85;;;10.00;99.90;;;;;;4955029;28;20894;-89
2022/09/10 08:14:46;;;;;;;3.65;1.77;;;10.10;99.90;;;;;;4917344;29;20411;-90
2022/09/10 08:17:15;;;;;;;3.55;1.80;;;10.10;99.90;;;;;;4960417;28;20561;-91
2022/09/10 08:19:44;;;;;;;4.50;1.90;;;10.20;99.90;;;;;;4949167;28;20502;-91
2022/09/10 08:22:13;;;;;;;5.07;1.60;;;10.20;99.90;;;;;;4949169;28;20416;-91
2022/09/10 08:24:51;;;;;;;3.95;1.65;;;10.30;99.90;;;;;;4948815;28;20490;-90
2022/09/10 08:27:22;;;;;;;3.35;1.60;;;10.40;99.90;;;;;;4948325;29;20894;-91
2022/09/10 08:29:52;;;;;;;3.88;1.60;;;10.40;99.90;;;;;;4932686;29;20408;-89
2022/09/10 08:32:20;;;;;;;4.23;1.73;;;10.50;99.90;;;;;;4946562;28;20421;-90
2022/09/10 08:34:48;;;;;;;4.82;1.70;;;10.60;99.90;;;;;;4948997;29;20446;-90
2022/09/10 08:37:17;;;;;;;3.42;1.52;;;10.70;99.90;;;;;;4943815;28;20440;-88
2022/09/10 08:39:45;;;;;;;4.57;1.70;;;10.90;99.90;;;;;;4960735;28;20417;-89
2022/09/10 08:42:23;;;;;;;4.05;1.70;;;10.90;99.90;;;;;;4935244;29;20426;-89
2022/09/10 08:44:53;;;;;;;3.13;1.73;;;11.00;99.90;;;;;;4935520;29;21098;-89
2022/09/10 08:47:44;;;;;;;3.78;1.52;;;11.00;99.90;;;;;;4935753;29;20406;-90
2022/09/10 08:50:28;;;;;;;4.57;1.50;;;11.10;99.90;;;;;;4954775;28;20895;-89
2022/09/10 08:53:28;;;;;;;3.50;1.50;;;11.20;99.90;;;;;;4971085;28;20408;-89
2022/09/10 08:56:04;;;;;;;3.90;1.52;;;11.40;99.90;;;;;;4956540;28;20441;-86
2022/09/10 08:58:49;;;;;;;4.70;1.58;;;11.50;99.90;;;;;;4931080;29;20446;-90
2022/09/10 09:01:24;;;;;;;2.60;1.40;;;11.40;99.90;;;;;;4941751;29;20398;-90
2022/09/10 09:03:56;;;;;;;3.83;1.50;;;11.50;99.90;;;;;;4919623;29;20439;-92
2022/09/10 09:06:49;;;;;;;4.93;1.50;;;11.60;99.90;;;;;;4934077;29;20422;-89
2022/09/10 09:09:20;;;;;;;2.58;1.40;;;11.60;99.90;;;;;;4935060;29;20413;-91
2022/09/10 09:12:01;;;;;;;3.60;1.53;;;11.60;99.90;;;;;;4953514;29;20420;-91
2022/09/10 09:14:39;;;;;;;2.33;1.38;;;11.60;99.90;;;;;;4958848;28;20410;-91
2022/09/10 09:17:34;;;;;;;3.13;1.58;;;11.80;99.90;;;;;;4938823;29;20416;-91
2022/09/10 09:20:17;;;;;;;3.35;1.60;;;11.90;99.90;;;;;;4932304;29;20416;-91
2022/09/10 09:22:53;;;;;;;8.52;1.80;;;12.00;99.90;;;;;;4914871;29;20414;-90
2022/09/10 09:25:31;;;;;;;6.32;1.70;;;12.00;99.90;;;;;;4951104;29;20402;-91
2022/09/10 09:28:04;;;;;;;4.15;2.10;;;12.00;99.90;;;;;;4947435;28;20897;-90
2022/09/10 09:30:48;;;;;;;4.32;1.30;;;12.00;99.90;;;;;;4934951;29;20988;-89
2022/09/10 09:33:23;;;;;;;2.53;1.30;;;11.90;99.90;;;;;;4934842;29;20790;-91
2022/09/10 09:36:03;;;;;;;4.27;1.43;;;12.10;99.90;;;;;;4929331;29;20434;-89
2022/09/10 09:38:44;;;;;;;2.92;1.42;;;12.10;99.90;;;;;;4935239;29;20402;-88
2022/09/10 09:41:17;;;;;;;2.45;1.30;;;12.30;99.90;;;;;;4920885;29;20492;-89
2022/09/10 09:43:54;;;;;;;3.28;1.20;;;12.40;99.90;;;;;;4923442;29;20492;-90
2022/09/10 09:46:25;;;;;;;3.63;1.00;;;12.40;99.90;;;;;;4915694;29;20486;-88
2022/09/10 09:49:00;;;;;;;3.60;1.27;;;12.50;99.90;;;;;;4920914;29;20467;-86
2022/09/10 09:51:34;;;;;;;3.07;1.33;;;12.50;99.90;;;;;;4945641;29;20417;-89
2022/09/10 09:54:14;;;;;;;3.63;1.37;;;12.50;99.90;;;;;;4916859;29;20790;-87
2022/09/10 09:57:17;;;;;;;2.90;1.47;;;12.70;99.90;;;;;;4927052;29;20413;-87
2022/09/10 09:59:46;;;;;;;5.40;1.30;;;12.70;99.90;;;;;;4949634;28;20897;-88
2022/09/10 10:02:15;;;;;;;3.83;1.50;;;12.80;99.90;;;;;;4934787;29;20402;-88
2022/09/10 10:05:06;;;;;;;3.65;1.30;;;12.80;99.90;;;;;;4938151;28;20775;-86
2022/09/10 10:07:35;;;;;;;2.45;1.30;;;12.80;99.90;;;;;;4956768;28;20452;-86
2022/09/10 10:10:06;;;;;;;2.33;1.17;;;13.00;99.90;;;;;;4935232;29;20394;-87
2022/09/10 10:12:48;;;;;;;1.53;1.00;;;12.90;99.90;;;;;;4930210;29;20441;-87
2022/09/10 10:15:36;;;;;;;3.53;1.20;;;13.00;99.90;;;;;;4909292;29;20412;-88
2022/09/10 10:18:22;;;;;;;22.20;13.80;;;13.10;99.90;;;;;;4929492;29;20892;-85
2022/09/10 10:21:11;;;;;;;4.53;1.45;;;13.20;99.90;;;;;;4926490;29;20407;-85
2022/09/10 10:23:39;;;;;;;4.05;1.15;;;13.30;99.90;;;;;;4920549;29;20441;-85
2022/09/10 10:26:19;;;;;;;1.83;0.90;;;13.40;99.90;;;;;;4926832;29;20424;-84
2022/09/10 10:28:48;;;;;;;2.30;1.00;;;13.50;99.90;;;;;;4922254;29;20446;-84
2022/09/10 10:31:17;;;;;;;1.73;1.00;;;13.40;99.90;;;;;;4922258;29;20410;-84
2022/09/10 10:34:01;;;;;;;2.08;1.00;;;13.60;99.90;;;;;;4932427;29;20425;-85
2022/09/10 10:37:05;;;;;;;2.97;1.20;;;13.50;99.90;;;;;;4938252;29;20449;-86
2022/09/10 10:39:52;;;;;;;3.60;1.20;;;13.50;99.90;;;;;;4928586;29;20418;-85
2022/09/10 10:42:38;;;;;;;2.65;0.80;;;13.70;99.90;;;;;;4929431;29;20410;-85
2022/09/10 10:45:43;;;;;;;1.20;0.90;;;13.80;99.90;;;;;;4930023;29;20420;-85
2022/09/10 10:48:34;;;;;;;2.90;0.93;;;13.80;99.90;;;;;;4913579;29;20433;-85
2022/09/10 10:51:10;;;;;;;3.30;1.00;;;13.90;99.90;;;;;;4924330;29;20429;-84
2022/09/10 10:53:53;;;;;;;2.47;0.90;;;14.00;99.90;;;;;;4933427;29;20429;-84
2022/09/10 10:56:39;;;;;;;2.60;1.00;;;14.10;99.90;;;;;;4933945;29;20908;-85
2022/09/10 10:59:43;;;;;;;2.47;0.90;;;14.30;99.90;;;;;;4931405;29;20398;-85
2022/09/10 11:02:17;;;;;;;2.20;1.20;;;14.20;99.90;;;;;;4919580;29;20421;-85
2022/09/10 11:04:49;;;;;;;2.10;0.90;;;14.20;99.90;;;;;;4923491;29;20420;-84
2022/09/10 11:07:40;;;;;;;4.68;1.10;;;14.20;99.90;;;;;;4930700;29;20969;-86
2022/09/10 11:10:21;;;;;;;2.10;0.90;;;14.40;99.90;;;;;;4931817;29;20406;-85
2022/09/10 11:13:15;;;;;;;2.30;1.00;;;14.40;99.90;;;;;;4929555;29;20417;-85
2022/09/10 11:16:04;;;;;;;3.22;1.00;;;14.50;99.90;;;;;;4946131;28;20419;-86
2022/09/10 11:18:42;;;;;;;1.88;0.95;;;14.70;99.90;;;;;;4931081;29;20413;-85
2022/09/10 11:21:22;;;;;;;2.92;0.95;;;14.70;99.90;;;;;;4924694;29;20417;-86
2022/09/10 11:24:23;;;;;;;2.78;0.80;;;14.70;99.90;;;;;;4930360;29;20413;-85
2022/09/10 11:26:55;;;;;;;3.53;0.88;;;14.80;99.90;;;;;;4926932;29;20759;-86
2022/09/10 11:29:40;;;;;;;4.22;0.95;;;14.80;99.90;;;;;;4929632;29;20443;-86
2022/09/10 11:32:25;;;;;;;2.33;1.00;;;15.00;99.90;;;;;;4934616;29;20420;-85
2022/09/10 11:35:07;;;;;;;3.42;0.90;;;15.10;99.90;;;;;;4930486;29;20446;-86
2022/09/10 11:38:09;;;;;;;2.47;0.80;;;14.90;99.90;;;;;;4929337;29;20877;-86
2022/09/10 11:40:57;;;;;;;4.70;1.10;;;14.90;99.90;;;;;;4924907;29;20469;-85
2022/09/10 11:43:29;;;;;;;2.92;0.95;;;15.10;99.90;;;;;;4934586;29;20512;-86
2022/09/10 11:46:01;;;;;;;1.73;1.00;;;15.20;99.90;;;;;;4935741;29;20760;-86
2022/09/10 11:48:42;;;;;;;4.68;0.90;;;15.20;99.90;;;;;;4943218;29;20394;-86
2022/09/10 11:51:25;;;;;;;1.30;0.90;;;15.30;99.90;;;;;;4942455;28;20384;-84
2022/09/10 11:53:53;;;;;;;2.33;0.90;;;15.20;99.90;;;;;;4956612;28;20392;-85
2022/09/10 11:56:41;;;;;;;2.20;0.90;;;15.20;99.90;;;;;;4935081;29;20418;-86
2022/09/10 11:59:35;;;;;;;3.33;0.90;;;15.30;99.90;;;;;;4957033;28;20437;-85
2022/09/10 12:02:26;;;;;;;2.77;1.07;;;15.40;99.90;;;;;;4956349;28;20437;-87
2022/09/10 12:05:19;;;;;;;2.13;0.90;;;15.60;99.90;;;;;;4936461;29;20462;-85
2022/09/10 12:08:27;;;;;;;5.18;1.00;;;15.70;99.90;;;;;;4939954;29;20741;-85
2022/09/10 12:11:13;;;;;;;1.75;0.90;;;15.80;99.90;;;;;;4923740;29;20425;-86
2022/09/10 12:13:45;;;;;;;1.80;0.73;;;15.80;99.90;;;;;;4930443;29;20410;-85
2022/09/10 12:16:30;;;;;;;3.88;1.10;;;15.70;99.90;;;;;;4932071;29;20402;-85
2022/09/10 12:19:00;;;;;;;3.35;0.90;;;15.80;99.90;;;;;;4935085;29;20417;-85
2022/09/10 12:21:40;;;;;;;3.25;0.90;;;15.90;99.90;;;;;;4945906;29;20913;-86
2022/09/10 12:24:31;;;;;;;3.13;0.98;;;16.00;99.90;;;;;;4925212;29;20420;-85
2022/09/10 12:27:04;;;;;;;3.75;1.00;;;16.00;99.90;;;;;;4935537;29;20402;-85
2022/09/10 12:29:39;;;;;;;3.40;0.95;;;16.10;99.90;;;;;;4934774;29;20486;-85
2022/09/10 12:32:19;;;;;;;17.17;1.98;;;16.20;99.90;;;;;;4932699;29;20509;-85
2022/09/10 12:35:07;;;;;;;7.33;1.33;;;16.30;99.90;;;;;;4924453;29;20447;-87
2022/09/10 12:37:38;;;;;;;5.00;1.00;;;16.30;99.90;;;;;;4941943;29;20498;-85
2022/09/10 12:40:24;;;;;;;3.42;1.00;;;16.30;99.90;;;;;;4956716;28;20418;-85
2022/09/10 12:42:59;;;;;;;2.95;0.90;;;16.30;99.90;;;;;;4936517;29;20406;-85
2022/09/10 12:46:01;;;;;;;2.22;0.90;;;16.30;99.90;;;;;;4931279;29;20410;-85
2022/09/10 12:48:31;;;;;;;3.03;0.98;;;16.40;99.90;;;;;;4936151;29;20818;-87
2022/09/10 12:51:22;;;;;;;2.75;1.10;;;16.50;99.90;;;;;;4935665;29;20474;-85
2022/09/10 12:54:04;;;;;;;2.30;1.00;;;16.40;99.90;;;;;;4935230;29;20950;-86
2022/09/10 12:57:03;;;;;;;3.88;1.00;;;16.50;99.90;;;;;;4929491;29;20410;-86
2022/09/10 13:00:11;;;;;;;5.23;1.10;;;16.60;99.90;;;;;;4934093;29;20394;-85
2022/09/10 13:03:06;;;;;;;4.70;1.17;;;16.60;99.90;;;;;;4928048;29;20477;-85
2022/09/10 13:05:54;;;;;;;2.67;1.08;;;16.70;99.90;;;;;;4945606;28;20421;-85
2022/09/10 13:08:44;;;;;;;3.65;1.20;;;16.80;99.90;;;;;;4937050;29;20423;-85
2022/09/10 13:11:15;;;;;;;2.80;0.90;;;16.80;99.90;;;;;;4940798;29;20414;-85
2022/09/10 13:13:47;;;;;;;2.45;0.93;;;16.80;99.90;;;;;;4938245;29;20437;-85
2022/09/10 13:16:19;;;;;;;2.00;0.90;;;16.80;99.90;;;;;;4923819;29;20913;-85
2022/09/10 13:18:50;;;;;;;2.38;0.95;;;16.80;99.90;;;;;;4921907;29;20512;-82
2022/09/10 13:21:24;;;;;;;2.28;1.05;;;17.00;99.90;;;;;;4931562;29;20410;-86
2022/09/10 13:23:53;;;;;;;2.80;1.00;;;16.80;99.90;;;;;;4936599;29;20402;-85
2022/09/10 13:26:31;;;;;;;3.40;1.17;;;16.60;99.90;;;;;;4948965;28;20509;-85
2022/09/10 13:29:28;;;;;;;3.80;1.30;;;16.60;99.90;;;;;;4924572;29;20765;-87
2022/09/10 13:32:00;;;;;;;4.20;1.10;;;16.80;99.90;;;;;;4920052;29;20753;-85
2022/09/10 13:34:51;;;;;;;2.40;1.05;;;16.90;99.90;;;;;;4934038;29;20416;-85